X  Luk Metar data        LEGR Granada
Temperatur
13°C Temperatur
11°C Duggpunkt
88% Fugtighed



Vind
0 KM/T
0 MPT
0 M/S
0 KNOB



Stille
N
Nuværende forhold

Mostly Sunny Mostly Sunny
Tryk 1023 (hPa) - 30.2 (inHg)
Sigt 7 (mil) - 11 (km)
Lufthavn
Lufthavnskode LEGR

Lokation: Granada
Afstand: 56 (km)

Metar:
METAR LEGR 251100Z 00000KT CAVOK 13/11 Q1023

Tid: 25-10-2020 12:00 CET